createdAt,value
2023-02-09T00:01:47.069Z,40.13
2023-02-09T00:04:23.408Z,42.53
2023-02-09T00:07:01.196Z,41.27
2023-02-09T00:09:38.228Z,40.07
2023-02-09T00:12:32.715Z,42.83
2023-02-09T00:15:12.876Z,38.43
2023-02-09T00:17:49.866Z,38.60
2023-02-09T00:20:26.172Z,41.03
2023-02-09T00:23:02.306Z,49.80
2023-02-09T00:25:39.592Z,46.20
2023-02-09T00:28:15.619Z,46.43
2023-02-09T00:30:56.721Z,43.47
2023-02-09T00:33:34.720Z,58.07
2023-02-09T00:36:12.116Z,45.10
2023-02-09T00:38:53.779Z,45.40
2023-02-09T00:41:42.823Z,45.43
2023-02-09T00:44:20.544Z,49.33
2023-02-09T00:47:02.199Z,47.90
2023-02-09T00:49:42.351Z,46.00
2023-02-09T00:52:18.736Z,45.93
2023-02-09T00:54:55.161Z,43.33
2023-02-09T00:57:31.928Z,45.07
2023-02-09T01:00:12.648Z,44.30
2023-02-09T01:02:52.700Z,42.20
2023-02-09T01:05:29.445Z,43.77
2023-02-09T01:08:06.213Z,41.40
2023-02-09T01:10:57.823Z,42.57
2023-02-09T01:13:35.151Z,40.33
2023-02-09T01:16:14.218Z,37.90
2023-02-09T01:18:53.258Z,37.13
2023-02-09T01:21:31.216Z,38.20
2023-02-09T01:24:21.591Z,36.73
2023-02-09T01:27:05.664Z,34.63
2023-02-09T01:29:41.873Z,36.23
2023-02-09T01:32:25.785Z,33.67
2023-02-09T01:35:06.154Z,34.40
2023-02-09T01:37:42.916Z,32.50
2023-02-09T01:40:22.846Z,31.00
2023-02-09T01:43:07.452Z,33.73
2023-02-09T01:45:51.525Z,30.47
2023-02-09T01:48:33.912Z,36.03
2023-02-09T01:51:15.538Z,32.33
2023-02-09T01:53:52.271Z,28.63
2023-02-09T01:56:38.840Z,29.43
2023-02-09T01:59:18.115Z,34.90
2023-02-09T02:01:56.722Z,27.67
2023-02-09T02:04:34.191Z,26.97
2023-02-09T02:07:16.537Z,26.30
2023-02-09T02:09:56.876Z,27.80
2023-02-09T02:12:35.612Z,29.17
2023-02-09T02:15:15.984Z,28.37
2023-02-09T02:18:11.844Z,29.97
2023-02-09T02:21:26.069Z,32.10
2023-02-09T02:24:35.083Z,27.03
2023-02-09T02:27:14.221Z,34.00
2023-02-09T02:30:32.018Z,32.37
2023-02-09T02:33:30.037Z,34.23
2023-02-09T02:36:18.710Z,33.93
2023-02-09T02:39:02.476Z,34.20
2023-02-09T02:42:05.109Z,35.80
2023-02-09T02:44:49.954Z,36.27
2023-02-09T02:47:29.105Z,34.67
2023-02-09T02:50:16.506Z,35.10
2023-02-09T02:53:04.358Z,36.47
2023-02-09T02:55:51.248Z,34.23
2023-02-09T02:58:31.088Z,34.07
2023-02-09T03:01:09.360Z,35.20
2023-02-09T03:03:49.220Z,34.57
2023-02-09T03:06:33.119Z,35.97
2023-02-09T03:09:18.823Z,36.33
2023-02-09T03:11:59.838Z,36.13
2023-02-09T03:14:47.361Z,35.47
2023-02-09T03:17:34.741Z,39.53
2023-02-09T03:20:20.656Z,35.80
2023-02-09T03:23:06.667Z,36.13
2023-02-09T03:25:50.176Z,34.93
2023-02-09T03:28:32.969Z,36.07
2023-02-09T03:31:11.893Z,40.47
2023-02-09T03:33:49.918Z,34.70
2023-02-09T03:36:26.845Z,40.43
2023-02-09T03:39:07.586Z,37.10
2023-02-09T03:41:49.623Z,38.00
2023-02-09T03:44:44.947Z,36.43
2023-02-09T03:47:23.743Z,40.47
2023-02-09T03:49:59.872Z,38.50
2023-02-09T03:52:36.148Z,46.40
2023-02-09T03:55:17.579Z,43.70
2023-02-09T03:57:56.517Z,38.00
2023-02-09T04:00:33.604Z,41.50
2023-02-09T04:03:10.055Z,45.13
2023-02-09T04:05:49.575Z,41.83
2023-02-09T04:08:29.068Z,44.33
2023-02-09T04:11:08.241Z,42.93
2023-02-09T04:13:52.211Z,50.37
2023-02-09T04:16:29.020Z,43.20
2023-02-09T04:19:11.651Z,46.63
2023-02-09T04:21:48.214Z,45.90
2023-02-09T04:24:38.198Z,46.37
2023-02-09T04:27:19.443Z,43.93
2023-02-09T04:29:56.092Z,51.33
2023-02-09T04:32:32.961Z,49.27
2023-02-09T04:35:11.180Z,51.43
2023-02-09T04:37:50.252Z,47.73
2023-02-09T04:40:28.272Z,43.80
2023-02-09T04:43:23.502Z,46.07
2023-02-09T04:46:09.004Z,51.67
2023-02-09T04:49:01.702Z,53.10
2023-02-09T04:51:40.704Z,51.47
2023-02-09T04:54:19.662Z,48.57
2023-02-09T04:57:14.266Z,48.80
2023-02-09T04:59:58.018Z,51.23
2023-02-09T05:02:39.709Z,50.70
2023-02-09T05:05:26.173Z,46.57
2023-02-09T05:08:06.709Z,45.30
2023-02-09T05:10:49.658Z,50.97
2023-02-09T05:13:28.214Z,51.90
2023-02-09T05:16:12.042Z,52.50
2023-02-09T05:18:50.900Z,47.67
2023-02-09T05:21:33.779Z,49.93
2023-02-09T05:24:14.523Z,48.23
2023-02-09T05:26:50.793Z,50.03
2023-02-09T05:29:27.721Z,48.33
2023-02-09T05:32:06.186Z,53.57
2023-02-09T05:34:46.802Z,47.07
2023-02-09T05:37:25.165Z,50.23
2023-02-09T05:40:17.339Z,48.40
2023-02-09T05:42:56.798Z,50.50
2023-02-09T05:45:46.251Z,47.83
2023-02-09T05:48:45.526Z,48.80
2023-02-09T05:51:39.247Z,47.50
2023-02-09T05:54:15.305Z,51.47
2023-02-09T05:56:54.074Z,46.23
2023-02-09T05:59:37.223Z,48.67
2023-02-09T06:02:21.401Z,46.43
2023-02-09T06:05:00.485Z,49.33
2023-02-09T06:07:39.371Z,51.13
2023-02-09T06:10:19.354Z,48.23
2023-02-09T06:12:57.696Z,47.93
2023-02-09T06:15:42.795Z,49.63
2023-02-09T06:18:19.760Z,49.47
2023-02-09T06:20:59.986Z,50.93
2023-02-09T06:23:37.398Z,53.43
2023-02-09T06:26:20.268Z,53.60
2023-02-09T06:29:00.552Z,51.23
2023-02-09T06:31:37.902Z,50.57
2023-02-09T06:34:18.927Z,51.47
2023-02-09T06:36:59.320Z,52.53
2023-02-09T06:39:36.155Z,48.10
2023-02-09T06:42:13.914Z,53.40
2023-02-09T06:44:51.724Z,50.40
2023-02-09T06:47:37.081Z,52.10
2023-02-09T06:50:15.100Z,51.57
2023-02-09T06:52:57.212Z,49.30
2023-02-09T06:55:33.792Z,49.87
2023-02-09T06:58:14.801Z,54.47
2023-02-09T07:00:54.699Z,47.50
2023-02-09T07:03:35.993Z,51.03
2023-02-09T07:06:15.837Z,54.03
2023-02-09T07:08:57.725Z,51.90
2023-02-09T07:11:35.321Z,48.67
2023-02-09T07:14:12.321Z,49.53
2023-02-09T07:16:49.781Z,53.03
2023-02-09T07:19:28.217Z,54.70
2023-02-09T07:22:06.040Z,54.97
2023-02-09T07:24:44.885Z,60.60
2023-02-09T07:27:25.820Z,50.00
2023-02-09T07:30:04.595Z,50.30
2023-02-09T07:32:47.807Z,56.70
2023-02-09T07:35:29.796Z,47.60
2023-02-09T07:38:06.598Z,56.83
2023-02-09T07:40:49.534Z,48.40
2023-02-09T07:43:35.141Z,53.70
2023-02-09T07:46:14.807Z,50.90
2023-02-09T07:48:52.806Z,54.07
2023-02-09T07:51:32.801Z,51.27
2023-02-09T07:54:09.999Z,53.80
2023-02-09T07:56:55.395Z,54.30
2023-02-09T07:59:32.148Z,55.80
2023-02-09T08:02:12.057Z,51.90
2023-02-09T08:04:50.854Z,54.70
2023-02-09T08:07:28.979Z,57.90
2023-02-09T08:10:06.762Z,50.90
2023-02-09T08:13:01.026Z,52.10
2023-02-09T08:15:43.867Z,56.50
2023-02-09T08:18:26.420Z,53.07
2023-02-09T08:21:14.677Z,58.17
2023-02-09T08:23:54.762Z,57.80
2023-02-09T08:26:31.832Z,55.33
2023-02-09T08:29:14.842Z,57.37
2023-02-09T08:31:51.541Z,58.60
2023-02-09T08:34:33.391Z,59.47
2023-02-09T08:37:11.803Z,60.17
2023-02-09T08:39:49.059Z,61.80
2023-02-09T08:42:30.100Z,61.13
2023-02-09T08:45:08.335Z,64.20
2023-02-09T08:47:46.773Z,64.10
2023-02-09T08:50:24.334Z,55.87
2023-02-09T08:53:04.563Z,64.33
2023-02-09T08:55:43.090Z,61.17
2023-02-09T08:58:24.858Z,60.93
2023-02-09T09:01:03.893Z,62.73
2023-02-09T09:03:40.402Z,67.17
2023-02-09T09:06:21.161Z,65.10
2023-02-09T09:08:58.924Z,65.77
2023-02-09T09:11:37.258Z,60.40
2023-02-09T09:14:16.270Z,64.07
2023-02-09T09:17:04.356Z,61.07
2023-02-09T09:19:40.596Z,64.90
2023-02-09T09:22:18.901Z,66.40
2023-02-09T09:24:56.741Z,60.60
2023-02-09T09:27:34.453Z,63.97
2023-02-09T09:30:17.104Z,65.57
2023-02-09T09:33:03.651Z,67.30
2023-02-09T09:35:44.603Z,60.90
2023-02-09T09:38:21.836Z,63.80
2023-02-09T09:41:00.581Z,67.87
2023-02-09T09:43:42.430Z,71.60
2023-02-09T09:46:25.441Z,62.57
2023-02-09T09:49:04.701Z,63.60
2023-02-09T09:51:48.907Z,67.10
2023-02-09T09:54:26.841Z,67.37
2023-02-09T09:57:06.626Z,65.23
2023-02-09T09:59:46.650Z,68.20
2023-02-09T10:02:33.745Z,57.23
2023-02-09T10:05:21.924Z,66.97
2023-02-09T10:08:08.247Z,60.33
2023-02-09T10:10:52.580Z,63.50
2023-02-09T10:13:35.821Z,60.33
2023-02-09T10:16:25.290Z,60.03
2023-02-09T10:19:07.845Z,61.83
2023-02-09T10:21:45.893Z,68.00
2023-02-09T10:24:26.608Z,64.73
2023-02-09T10:27:13.132Z,56.43
2023-02-09T10:29:53.332Z,57.90
2023-02-09T10:32:45.901Z,63.73
2023-02-09T10:35:40.077Z,68.87
2023-02-09T10:38:24.820Z,65.03
2023-02-09T10:41:01.273Z,63.87
2023-02-09T10:43:40.855Z,64.07
2023-02-09T10:46:22.203Z,59.63
2023-02-09T10:48:58.977Z,60.87
2023-02-09T10:51:37.113Z,65.30
2023-02-09T10:54:29.295Z,62.13
2023-02-09T10:57:08.916Z,62.53
2023-02-09T10:59:57.941Z,62.10
2023-02-09T11:02:43.329Z,67.73
2023-02-09T11:05:39.006Z,64.20
2023-02-09T11:08:29.127Z,61.80
2023-02-09T11:11:13.143Z,69.87
2023-02-09T11:14:02.304Z,68.20
2023-02-09T11:17:39.532Z,69.73
2023-02-09T11:20:35.134Z,74.67
2023-02-09T11:23:36.309Z,68.03
2023-02-09T11:26:32.697Z,78.73
2023-02-09T11:29:20.567Z,65.87
2023-02-09T11:32:11.849Z,70.60
2023-02-09T11:35:16.192Z,63.20
2023-02-09T11:38:06.200Z,63.50
2023-02-09T11:40:47.716Z,66.60
2023-02-09T11:43:36.347Z,69.23
2023-02-09T11:46:22.433Z,68.43
2023-02-09T11:49:08.088Z,68.60
2023-02-09T11:51:47.587Z,61.10
2023-02-09T11:54:28.341Z,58.83
2023-02-09T11:57:23.848Z,59.07
2023-02-09T12:00:12.060Z,56.80
2023-02-09T12:02:57.856Z,62.03
2023-02-09T12:05:38.942Z,62.90
2023-02-09T12:08:32.192Z,58.93
2023-02-09T12:11:47.063Z,66.77
2023-02-09T12:14:49.352Z,57.10
2023-02-09T12:17:47.166Z,61.23
2023-02-09T12:20:35.352Z,58.87
2023-02-09T12:23:31.829Z,59.60
2023-02-09T12:26:35.482Z,63.30
2023-02-09T12:29:41.976Z,65.33
2023-02-09T12:32:55.092Z,64.70
2023-02-09T12:35:40.974Z,63.60
2023-02-09T12:38:31.821Z,60.60
2023-02-09T12:41:31.187Z,58.93
2023-02-09T12:44:43.904Z,60.77
2023-02-09T12:47:48.068Z,62.53
2023-02-09T12:50:49.505Z,61.97
2023-02-09T12:53:54.808Z,70.60
2023-02-09T12:56:43.389Z,68.83
2023-02-09T12:59:39.464Z,66.93
2023-02-09T13:02:29.081Z,64.47
2023-02-09T13:05:17.566Z,64.63
2023-02-09T13:08:17.330Z,69.93
2023-02-09T13:10:59.165Z,66.03
2023-02-09T13:13:51.827Z,68.83
2023-02-09T13:17:09.187Z,69.13
2023-02-09T13:20:24.391Z,65.93
2023-02-09T13:23:42.576Z,67.70
2023-02-09T13:26:29.514Z,64.50
2023-02-09T13:29:30.304Z,76.00
2023-02-09T13:32:20.465Z,66.17
2023-02-09T13:35:04.960Z,69.27
2023-02-09T13:37:52.632Z,63.20
2023-02-09T13:40:33.980Z,68.07
2023-02-09T13:43:21.393Z,69.83
2023-02-09T13:46:02.889Z,66.70
2023-02-09T13:48:44.332Z,66.83
2023-02-09T13:51:25.530Z,66.47
2023-02-09T13:54:15.134Z,69.97
2023-02-09T13:56:58.535Z,69.60
2023-02-09T13:59:38.702Z,72.93
2023-02-09T14:02:27.292Z,74.50
2023-02-09T14:05:06.188Z,68.17
2023-02-09T14:08:10.172Z,62.23
2023-02-09T14:10:57.041Z,67.37
2023-02-09T14:13:41.135Z,62.93
2023-02-09T14:16:23.116Z,66.57
2023-02-09T14:19:03.864Z,68.70
2023-02-09T14:21:54.533Z,59.73
2023-02-09T14:24:49.983Z,66.23
2023-02-09T14:27:41.399Z,55.60
2023-02-09T14:30:27.243Z,69.13
2023-02-09T14:33:11.684Z,61.80
2023-02-09T14:36:14.745Z,57.13
2023-02-09T14:38:52.622Z,63.97
2023-02-09T14:41:43.605Z,58.27
2023-02-09T14:44:27.965Z,58.03
2023-02-09T14:47:18.918Z,59.10
2023-02-09T14:49:58.126Z,51.67
2023-02-09T14:52:40.472Z,56.47
2023-02-09T14:55:28.643Z,55.63
2023-02-09T14:58:10.932Z,58.47
2023-02-09T15:00:53.459Z,55.60
2023-02-09T15:03:39.491Z,59.53
2023-02-09T15:06:32.641Z,56.63
2023-02-09T15:09:21.021Z,60.33
2023-02-09T15:12:13.109Z,54.43
2023-02-09T15:14:55.597Z,58.23
2023-02-09T15:17:34.500Z,60.63
2023-02-09T15:20:18.011Z,57.97
2023-02-09T15:22:59.252Z,62.37
2023-02-09T15:25:39.097Z,60.40
2023-02-09T15:28:31.600Z,56.53
2023-02-09T15:31:08.994Z,65.27
2023-02-09T15:33:53.635Z,63.60
2023-02-09T15:36:35.200Z,63.47
2023-02-09T15:39:18.094Z,59.60
2023-02-09T15:42:09.435Z,60.33
2023-02-09T15:45:02.354Z,60.27
2023-02-09T15:48:04.095Z,59.33
2023-02-09T15:50:43.566Z,63.57
2023-02-09T15:53:28.090Z,67.30
2023-02-09T15:56:05.580Z,61.90
2023-02-09T15:58:47.950Z,71.17
2023-02-09T16:01:28.004Z,66.17
2023-02-09T16:04:14.971Z,68.03
2023-02-09T16:06:56.570Z,78.40
2023-02-09T16:09:42.409Z,71.97
2023-02-09T16:12:20.990Z,75.33
2023-02-09T16:14:57.163Z,77.20
2023-02-09T16:17:37.283Z,78.23
2023-02-09T16:20:14.273Z,76.97
2023-02-09T16:22:54.940Z,74.00
2023-02-09T16:25:36.831Z,76.40
2023-02-09T16:28:16.288Z,75.87
2023-02-09T16:31:02.571Z,75.90
2023-02-09T16:33:41.004Z,78.80
2023-02-09T16:36:21.104Z,76.90
2023-02-09T16:38:57.616Z,80.63
2023-02-09T16:41:52.600Z,74.87
2023-02-09T16:44:31.855Z,78.37
2023-02-09T16:47:15.725Z,75.67
2023-02-09T16:50:03.054Z,79.57
2023-02-09T16:52:42.065Z,81.07
2023-02-09T16:55:27.388Z,84.50
2023-02-09T16:58:08.434Z,76.53
2023-02-09T17:00:47.004Z,80.13
2023-02-09T17:03:25.498Z,76.47
2023-02-09T17:06:04.028Z,83.13
2023-02-09T17:08:42.891Z,78.47
2023-02-09T17:11:24.483Z,78.77
2023-02-09T17:14:04.572Z,80.17
2023-02-09T17:16:51.327Z,79.07
2023-02-09T17:19:35.676Z,78.60
2023-02-09T17:22:21.392Z,76.07
2023-02-09T17:24:59.207Z,79.90
2023-02-09T17:27:35.149Z,74.87
2023-02-09T17:30:13.962Z,78.70
2023-02-09T17:32:51.674Z,81.53
2023-02-09T17:36:03.619Z,79.23
2023-02-09T17:38:32.911Z,76.03
2023-02-09T17:41:17.868Z,83.67
2023-02-09T17:43:54.722Z,82.17
2023-02-09T17:46:35.728Z,77.53
2023-02-09T17:49:14.980Z,79.77
2023-02-09T17:51:53.033Z,83.17
2023-02-09T17:54:29.292Z,81.47
2023-02-09T17:57:05.046Z,76.97
2023-02-09T17:59:42.025Z,77.90
2023-02-09T18:02:23.850Z,79.47
2023-02-09T18:05:00.835Z,83.00
2023-02-09T18:07:40.622Z,79.33
2023-02-09T18:10:17.428Z,79.83
2023-02-09T18:12:56.028Z,78.20
2023-02-09T18:15:34.264Z,80.00
2023-02-09T18:18:12.612Z,77.80
2023-02-09T18:20:50.353Z,80.10
2023-02-09T18:23:26.959Z,81.40
2023-02-09T18:26:03.496Z,84.97
2023-02-09T18:28:39.507Z,81.47
2023-02-09T18:31:21.247Z,80.13
2023-02-09T18:33:59.699Z,76.23
2023-02-09T18:36:35.996Z,80.50
2023-02-09T18:39:16.372Z,80.73
2023-02-09T18:41:56.033Z,83.27
2023-02-09T18:44:35.148Z,84.70
2023-02-09T18:47:12.131Z,79.43
2023-02-09T18:49:51.805Z,79.63
2023-02-09T18:52:29.164Z,80.53
2023-02-09T18:55:06.122Z,79.60
2023-02-09T18:57:42.656Z,86.10
2023-02-09T19:00:20.133Z,82.53
2023-02-09T19:02:59.040Z,81.60
2023-02-09T19:05:37.616Z,78.60
2023-02-09T19:08:13.334Z,82.70
2023-02-09T19:10:49.617Z,84.40
2023-02-09T19:13:26.784Z,85.70
2023-02-09T19:16:02.630Z,87.37
2023-02-09T19:18:38.206Z,90.10
2023-02-09T19:21:15.558Z,86.10
2023-02-09T19:23:51.749Z,83.03
2023-02-09T19:26:27.699Z,90.63
2023-02-09T19:29:04.248Z,89.77
2023-02-09T19:31:39.474Z,87.53
2023-02-09T19:34:14.164Z,87.00
2023-02-09T19:36:50.891Z,86.83
2023-02-09T19:39:26.839Z,88.33
2023-02-09T19:42:02.946Z,88.53
2023-02-09T19:44:39.558Z,87.87
2023-02-09T19:47:14.463Z,93.40
2023-02-09T19:49:48.952Z,89.33
2023-02-09T19:52:25.762Z,87.37
2023-02-09T19:55:01.022Z,91.73
2023-02-09T19:57:37.052Z,88.03
2023-02-09T20:00:12.924Z,94.60
2023-02-09T20:02:48.144Z,95.27
2023-02-09T20:05:23.711Z,95.13
2023-02-09T20:08:00.174Z,101.80
2023-02-09T20:10:34.007Z,103.40
2023-02-09T20:13:08.896Z,97.47
2023-02-09T20:15:47.382Z,102.30
2023-02-09T20:18:22.194Z,98.40
2023-02-09T20:20:57.043Z,100.67
2023-02-09T20:23:33.450Z,99.43
2023-02-09T20:26:13.899Z,103.97
2023-02-09T20:28:47.797Z,111.53
2023-02-09T20:31:25.582Z,101.83
2023-02-09T20:34:01.825Z,100.23
2023-02-09T20:36:37.342Z,107.00
2023-02-09T20:39:17.202Z,100.27
2023-02-09T20:42:04.872Z,108.47
2023-02-09T20:44:51.428Z,106.43
2023-02-09T20:47:25.401Z,109.63
2023-02-09T20:50:02.224Z,107.03
2023-02-09T20:52:35.881Z,103.67
2023-02-09T20:55:11.643Z,107.70
2023-02-09T20:57:45.579Z,106.73
2023-02-09T21:00:20.011Z,111.43
2023-02-09T21:02:53.579Z,111.83
2023-02-09T21:05:27.471Z,114.07
2023-02-09T21:08:04.885Z,116.87
2023-02-09T21:10:40.602Z,113.07
2023-02-09T21:13:15.300Z,115.97
2023-02-09T21:15:48.671Z,116.00
2023-02-09T21:18:23.350Z,110.33
2023-02-09T21:20:56.935Z,117.37
2023-02-09T21:23:30.822Z,119.67
2023-02-09T21:26:12.803Z,111.60
2023-02-09T21:28:49.805Z,117.10
2023-02-09T21:31:26.354Z,115.53
2023-02-09T21:34:00.752Z,119.87
2023-02-09T21:36:36.406Z,109.53
2023-02-09T21:39:11.940Z,115.70
2023-02-09T21:42:04.339Z,111.67
2023-02-09T21:44:40.788Z,107.77
2023-02-09T21:47:15.158Z,108.13
2023-02-09T21:49:49.395Z,112.47
2023-02-09T21:52:23.655Z,109.83
2023-02-09T21:54:58.614Z,112.23
2023-02-09T21:57:35.266Z,111.10
2023-02-09T22:00:11.023Z,114.13
2023-02-09T22:02:46.162Z,109.93
2023-02-09T22:05:20.981Z,116.97
2023-02-09T22:07:56.410Z,119.20
2023-02-09T22:10:31.283Z,116.63
2023-02-09T22:13:10.762Z,113.33
2023-02-09T22:15:47.544Z,114.43
2023-02-09T22:18:23.741Z,117.67
2023-02-09T22:20:58.615Z,107.97
2023-02-09T22:23:33.623Z,121.03
2023-02-09T22:26:11.364Z,115.87
2023-02-09T22:28:48.300Z,120.23
2023-02-09T22:31:25.771Z,112.93
2023-02-09T22:34:01.828Z,122.63
2023-02-09T22:36:36.526Z,117.27
2023-02-09T22:39:13.179Z,115.53
2023-02-09T22:41:49.172Z,115.60
2023-02-09T22:44:26.691Z,116.40
2023-02-09T22:47:03.735Z,125.93
2023-02-09T22:49:41.241Z,118.87
2023-02-09T22:52:17.008Z,116.70
2023-02-09T22:54:52.544Z,116.53
2023-02-09T22:57:28.647Z,107.37
2023-02-09T23:00:05.548Z,105.00
2023-02-09T23:02:42.328Z,97.20
2023-02-09T23:05:18.736Z,104.67
2023-02-09T23:07:54.492Z,106.50
2023-02-09T23:10:30.003Z,110.57
2023-02-09T23:13:04.877Z,95.07
2023-02-09T23:15:41.971Z,106.37
2023-02-09T23:18:17.960Z,108.17
2023-02-09T23:20:53.789Z,100.77
2023-02-09T23:23:29.852Z,109.47
2023-02-09T23:26:06.184Z,105.07
2023-02-09T23:28:42.196Z,108.43
2023-02-09T23:31:22.639Z,97.03
2023-02-09T23:33:59.173Z,99.30
2023-02-09T23:36:36.332Z,95.53
2023-02-09T23:39:13.895Z,100.37
2023-02-09T23:41:50.282Z,101.87
2023-02-09T23:44:26.524Z,101.57
2023-02-09T23:47:05.604Z,98.90
2023-02-09T23:49:41.331Z,103.83
2023-02-09T23:52:16.815Z,105.83
2023-02-09T23:54:52.497Z,99.13
2023-02-09T23:57:28.776Z,95.33
